Time;durP1;ratioP1;P1;durP2;ratioP2;P2;SDS_P1;SDS_P2;PMS_P1;PMS_P2;Temp;Humidity;BMP_temperature;BMP_pressure;BME280_temperature;BME280_humidity;BME280_pressure;Samples;Min_cycle;Max_cycle;Signal;HPM_P1;HPM_P2
2022/02/26 00:02:21;;;;;;;8.32;2.85;;;5.30;73.20;;;;;;5035881;28;20083;-60
2022/02/26 00:04:47;;;;;;;11.18;2.88;;;5.30;73.20;;;;;;5030941;28;20052;-61
2022/02/26 00:07:13;;;;;;;9.40;2.38;;;5.20;73.20;;;;;;5029426;28;20165;-61
2022/02/26 00:09:39;;;;;;;10.90;2.85;;;5.20;73.30;;;;;;5031415;28;20412;-60
2022/02/26 00:12:05;;;;;;;13.85;2.80;;;5.20;73.30;;;;;;5029416;28;20041;-65
2022/02/26 00:14:31;;;;;;;11.57;2.90;;;5.10;73.30;;;;;;5030652;28;20042;-65
2022/02/26 00:16:57;;;;;;;10.63;3.17;;;5.10;73.40;;;;;;5030417;28;20038;-61
2022/02/26 00:19:22;;;;;;;15.00;3.80;;;5.10;73.40;;;;;;5025334;28;20034;-65
2022/02/26 00:21:48;;;;;;;13.93;2.90;;;5.00;73.20;;;;;;5028421;28;20025;-65
2022/02/26 00:24:14;;;;;;;10.10;3.13;;;5.00;73.20;;;;;;5030051;28;20036;-61
2022/02/26 00:26:40;;;;;;;12.60;3.28;;;5.00;73.30;;;;;;5030064;28;20116;-61
2022/02/26 00:29:05;;;;;;;9.02;2.67;;;4.90;73.30;;;;;;5031319;28;20037;-65
2022/02/26 00:31:31;;;;;;;14.65;2.80;;;4.90;73.30;;;;;;5030734;28;20068;-65
2022/02/26 00:33:57;;;;;;;14.43;3.45;;;4.90;73.40;;;;;;5030370;28;20064;-65
2022/02/26 00:36:22;;;;;;;13.20;2.75;;;4.90;73.50;;;;;;5027605;28;20029;-65
2022/02/26 00:38:48;;;;;;;10.48;2.78;;;4.80;73.40;;;;;;5030779;28;20061;-65
2022/02/26 00:41:14;;;;;;;9.98;2.83;;;4.80;73.50;;;;;;5031296;28;20037;-62
2022/02/26 00:43:40;;;;;;;12.10;3.80;;;4.70;74.20;;;;;;5030419;28;20029;-61
2022/02/26 00:46:09;;;;;;;13.13;2.97;;;4.70;73.60;;;;;;5030260;28;20503;-61
2022/02/26 00:51:19;;;;;;;13.02;3.10;;;4.60;73.70;;;;;;5030697;28;20040;-61
2022/02/26 00:53:45;;;;;;;13.25;3.30;;;4.60;73.70;;;;;;5016051;28;20120;-65
2022/02/26 00:56:11;;;;;;;8.25;2.75;;;4.60;73.70;;;;;;5035213;28;20029;-65
2022/02/26 00:58:36;;;;;;;14.63;3.10;;;4.50;73.60;;;;;;5028710;28;20075;-65
2022/02/26 01:01:02;;;;;;;8.90;2.80;;;4.50;73.70;;;;;;5029944;28;20037;-65
2022/02/26 01:03:28;;;;;;;14.32;3.40;;;4.50;73.70;;;;;;5030285;28;20108;-65
2022/02/26 01:05:54;;;;;;;14.05;3.85;;;4.50;73.70;;;;;;5029256;28;20449;-65
2022/02/26 01:08:20;;;;;;;10.30;2.85;;;4.50;73.70;;;;;;5030421;28;20021;-65
2022/02/26 01:10:45;;;;;;;14.35;3.05;;;4.40;73.80;;;;;;5021356;28;20096;-65
2022/02/26 01:13:11;;;;;;;12.27;2.63;;;4.40;73.90;;;;;;5030574;28;20033;-65
2022/02/26 01:15:37;;;;;;;13.27;2.67;;;4.40;74.00;;;;;;5031180;28;20376;-65
2022/02/26 01:18:02;;;;;;;13.68;3.42;;;4.40;74.20;;;;;;5029127;28;20082;-61
2022/02/26 01:20:28;;;;;;;11.93;3.35;;;4.30;74.40;;;;;;5031114;28;20044;-65
2022/02/26 01:22:57;;;;;;;12.45;3.38;;;4.30;74.60;;;;;;5031032;28;20033;-65
2022/02/26 01:25:23;;;;;;;12.43;3.33;;;4.30;74.60;;;;;;5031292;28;20029;-61
2022/02/26 01:27:48;;;;;;;16.80;3.95;;;4.30;74.70;;;;;;5020900;28;20042;-61
2022/02/26 01:30:14;;;;;;;12.73;3.28;;;4.20;74.70;;;;;;5031800;28;20040;-61
2022/02/26 01:32:41;;;;;;;13.68;3.78;;;4.20;74.60;;;;;;5029855;28;20076;-61
2022/02/26 01:35:10;;;;;;;14.85;3.00;;;4.20;74.50;;;;;;5013294;28;20037;-61
2022/02/26 01:37:36;;;;;;;9.82;3.08;;;4.10;74.50;;;;;;5024163;28;20377;-61
2022/02/26 01:40:03;;;;;;;12.32;2.78;;;4.10;74.60;;;;;;5030468;28;20499;-61
2022/02/26 01:42:28;;;;;;;10.63;3.60;;;4.10;74.70;;;;;;5008999;28;20030;-61
2022/02/26 01:44:54;;;;;;;15.32;3.28;;;4.10;74.70;;;;;;5056218;28;20033;-61
2022/02/26 01:47:21;;;;;;;16.90;4.03;;;4.10;74.70;;;;;;5030316;28;20025;-61
2022/02/26 01:49:48;;;;;;;15.02;3.03;;;4.00;74.60;;;;;;5028840;28;20481;-61
2022/02/26 01:52:17;;;;;;;11.27;2.95;;;4.00;74.70;;;;;;5028976;28;20562;-61
2022/02/26 01:54:48;;;;;;;13.55;3.17;;;3.90;74.80;;;;;;5029051;28;20033;-60
2022/02/26 01:57:14;;;;;;;13.65;3.45;;;3.90;74.80;;;;;;5029046;28;20392;-61
2022/02/26 01:59:39;;;;;;;10.73;3.65;;;3.90;74.90;;;;;;5031523;28;20112;-60
2022/02/26 02:02:06;;;;;;;17.00;3.25;;;3.90;75.00;;;;;;5044013;28;20475;-65
2022/02/26 02:04:32;;;;;;;13.68;3.10;;;3.90;75.10;;;;;;5030970;28;20104;-61
2022/02/26 02:06:58;;;;;;;15.50;2.85;;;3.80;75.00;;;;;;5029259;28;20538;-61
2022/02/26 02:09:25;;;;;;;13.35;3.00;;;3.80;75.10;;;;;;5011445;28;20461;-61
2022/02/26 02:11:51;;;;;;;12.00;4.00;;;3.80;75.20;;;;;;5029142;28;20057;-65
2022/02/26 02:14:17;;;;;;;20.55;3.72;;;3.80;75.20;;;;;;5028918;28;20132;-61
2022/02/26 02:16:43;;;;;;;18.17;3.65;;;3.80;75.60;;;;;;5028439;28;20041;-60
2022/02/26 02:19:10;;;;;;;14.70;4.15;;;3.70;75.80;;;;;;5021700;28;20080;-61
2022/02/26 02:21:37;;;;;;;16.90;4.20;;;3.70;75.90;;;;;;5028495;28;20033;-61
2022/02/26 02:24:03;;;;;;;13.77;3.63;;;3.70;75.90;;;;;;5017244;28;20037;-60
2022/02/26 02:26:30;;;;;;;19.25;4.47;;;3.70;75.80;;;;;;5029272;28;20071;-61
2022/02/26 02:28:57;;;;;;;13.63;3.38;;;3.70;75.90;;;;;;5028138;28;20041;-61
2022/02/26 02:31:23;;;;;;;18.60;4.07;;;3.60;76.00;;;;;;5027402;28;20060;-62
2022/02/26 02:33:50;;;;;;;14.05;3.50;;;3.60;76.20;;;;;;5028476;28;20045;-60
2022/02/26 02:36:16;;;;;;;16.13;4.30;;;3.60;76.30;;;;;;5016542;28;20357;-60
2022/02/26 02:38:42;;;;;;;15.48;3.45;;;3.60;76.30;;;;;;5029068;28;20033;-60
2022/02/26 02:41:08;;;;;;;10.80;3.28;;;3.50;76.10;;;;;;5029027;28;20034;-60
2022/02/26 02:43:34;;;;;;;17.67;4.15;;;3.50;76.00;;;;;;5027447;28;20025;-61
2022/02/26 02:46:00;;;;;;;14.38;3.50;;;3.50;76.10;;;;;;5027405;28;20388;-60
2022/02/26 02:48:27;;;;;;;18.10;3.53;;;3.50;76.10;;;;;;5028469;28;20099;-65
2022/02/26 02:50:53;;;;;;;18.02;4.93;;;3.40;76.20;;;;;;5027472;28;20064;-61
2022/02/26 02:53:19;;;;;;;16.17;5.25;;;3.40;76.30;;;;;;5025638;28;20033;-60
2022/02/26 02:55:46;;;;;;;14.82;3.70;;;3.40;76.40;;;;;;5028242;28;20037;-61
2022/02/26 02:58:18;;;;;;;16.67;3.58;;;3.40;76.40;;;;;;5027986;28;20104;-61
2022/02/26 03:00:44;;;;;;;13.32;3.65;;;3.40;76.50;;;;;;5028799;28;20029;-61
2022/02/26 03:03:10;;;;;;;14.70;3.78;;;3.40;76.50;;;;;;5029773;28;20506;-61
2022/02/26 03:05:36;;;;;;;13.60;4.03;;;3.30;76.50;;;;;;5043163;28;20053;-60
2022/02/26 03:08:03;;;;;;;14.52;5.00;;;3.30;76.50;;;;;;5034418;28;20052;-60
2022/02/26 03:10:31;;;;;;;13.32;3.08;;;3.30;76.30;;;;;;5029320;28;20096;-61
2022/02/26 03:12:57;;;;;;;12.05;3.50;;;3.30;76.30;;;;;;5032227;28;20056;-61
2022/02/26 03:15:23;;;;;;;15.40;4.05;;;3.30;76.10;;;;;;5032991;28;20461;-61
2022/02/26 03:17:52;;;;;;;10.68;3.20;;;3.20;76.20;;;;;;5032569;28;20056;-61
2022/02/26 03:20:18;;;;;;;11.85;3.30;;;3.20;76.40;;;;;;5032166;28;20038;-61
2022/02/26 03:22:44;;;;;;;14.40;3.60;;;3.20;76.40;;;;;;5031744;28;20400;-61
2022/02/26 03:25:10;;;;;;;15.98;4.13;;;3.20;76.30;;;;;;5032112;28;20030;-61
2022/02/26 03:27:36;;;;;;;16.38;3.45;;;3.20;76.40;;;;;;5023145;28;20021;-61
2022/02/26 03:30:04;;;;;;;15.43;3.67;;;3.20;76.30;;;;;;5031899;28;20157;-60
2022/02/26 03:32:29;;;;;;;13.43;4.03;;;3.20;76.20;;;;;;5029686;28;20099;-61
2022/02/26 03:34:55;;;;;;;19.65;3.85;;;3.20;76.20;;;;;;5031698;28;20037;-61
2022/02/26 03:37:21;;;;;;;18.25;4.03;;;3.20;76.20;;;;;;5039344;28;20033;-61
2022/02/26 03:39:47;;;;;;;11.10;3.33;;;3.10;76.40;;;;;;5023171;28;20038;-61
2022/02/26 03:42:12;;;;;;;12.45;3.95;;;3.10;76.70;;;;;;5034462;28;20044;-65
2022/02/26 03:44:39;;;;;;;15.50;4.22;;;3.10;76.70;;;;;;5018046;28;20029;-65
2022/02/26 03:47:04;;;;;;;15.80;3.30;;;3.10;76.80;;;;;;5029527;28;20021;-65
2022/02/26 03:49:31;;;;;;;15.85;4.53;;;3.00;76.80;;;;;;5031533;28;20492;-65
2022/02/26 03:51:59;;;;;;;11.48;3.65;;;3.00;76.80;;;;;;5031138;28;20033;-66
2022/02/26 03:54:25;;;;;;;15.13;3.55;;;3.00;76.70;;;;;;5030605;28;20037;-65
2022/02/26 03:56:50;;;;;;;16.95;3.88;;;3.00;76.70;;;;;;5030948;28;20044;-65
2022/02/26 03:59:16;;;;;;;12.25;3.65;;;2.90;76.60;;;;;;5029942;28;20034;-61
2022/02/26 04:01:42;;;;;;;15.27;4.80;;;3.00;76.50;;;;;;5019893;28;20018;-61
2022/02/26 04:04:08;;;;;;;13.52;3.63;;;2.90;76.40;;;;;;5030691;28;20183;-60
2022/02/26 04:06:34;;;;;;;15.35;4.25;;;2.90;76.60;;;;;;5031012;28;20136;-60
2022/02/26 04:09:00;;;;;;;14.82;3.90;;;2.80;76.80;;;;;;5030940;28;20028;-61
2022/02/26 04:11:26;;;;;;;15.73;4.57;;;2.80;76.80;;;;;;5042991;28;20036;-61
2022/02/26 04:13:52;;;;;;;16.02;4.30;;;2.80;77.00;;;;;;5039392;28;20380;-65
2022/02/26 04:16:18;;;;;;;11.10;3.80;;;2.80;77.70;;;;;;5031558;28;20041;-65
2022/02/26 04:18:43;;;;;;;14.70;4.50;;;2.80;77.10;;;;;;5027614;28;20037;-65
2022/02/26 04:21:09;;;;;;;20.08;4.35;;;2.80;77.10;;;;;;5031244;28;20092;-61
2022/02/26 04:23:38;;;;;;;15.18;4.88;;;2.80;77.20;;;;;;5030454;28;20025;-61
2022/02/26 04:26:04;;;;;;;14.60;4.50;;;2.70;77.30;;;;;;5030061;28;20030;-60
2022/02/26 04:28:30;;;;;;;13.35;4.10;;;2.70;77.40;;;;;;5030732;28;20030;-60
2022/02/26 04:30:55;;;;;;;15.43;4.30;;;2.70;77.60;;;;;;5030344;28;20033;-61
2022/02/26 04:33:21;;;;;;;19.13;5.13;;;2.70;77.70;;;;;;5030527;28;20021;-60
2022/02/26 04:35:47;;;;;;;20.08;4.97;;;2.70;77.80;;;;;;5024347;28;20056;-61
2022/02/26 04:38:13;;;;;;;16.25;5.03;;;2.70;78.10;;;;;;5029363;28;20372;-65
2022/02/26 04:40:39;;;;;;;16.33;4.18;;;2.70;78.20;;;;;;5030037;28;20293;-65
2022/02/26 04:43:04;;;;;;;15.00;5.95;;;2.70;78.30;;;;;;5029935;28;20040;-65
2022/02/26 04:45:30;;;;;;;13.95;4.05;;;2.70;78.40;;;;;;5030524;28;20381;-65
2022/02/26 04:47:56;;;;;;;13.55;5.07;;;2.70;78.50;;;;;;5030399;28;20084;-65
2022/02/26 04:50:21;;;;;;;19.73;5.18;;;2.70;78.60;;;;;;5030005;28;20436;-65
2022/02/26 04:52:47;;;;;;;17.08;5.63;;;2.70;78.70;;;;;;5029832;28;20024;-65
2022/02/26 04:55:13;;;;;;;17.73;5.13;;;2.70;79.00;;;;;;5028539;28;20084;-65
2022/02/26 04:57:39;;;;;;;17.30;4.90;;;2.70;79.20;;;;;;5028930;28;20022;-60
2022/02/26 05:00:08;;;;;;;12.60;5.18;;;2.70;79.30;;;;;;5028753;28;20037;-60
2022/02/26 05:02:34;;;;;;;14.63;5.07;;;2.80;79.30;;;;;;5029650;28;20084;-61
2022/02/26 05:04:59;;;;;;;17.00;5.07;;;2.80;79.20;;;;;;5029448;28;20484;-61
2022/02/26 05:07:25;;;;;;;23.58;5.97;;;2.80;79.30;;;;;;5028072;28;20053;-61
2022/02/26 05:09:51;;;;;;;15.40;5.50;;;2.80;79.40;;;;;;5022479;28;20087;-60
2022/02/26 05:12:17;;;;;;;18.52;6.78;;;2.80;79.50;;;;;;5029001;28;20392;-61
2022/02/26 05:14:43;;;;;;;19.77;5.68;;;2.80;79.50;;;;;;5032826;28;20030;-61
2022/02/26 05:17:08;;;;;;;23.33;6.03;;;2.80;79.50;;;;;;5047994;28;20037;-61
2022/02/26 05:19:34;;;;;;;16.60;5.90;;;2.80;79.40;;;;;;5032521;28;20061;-60
2022/02/26 05:22:00;;;;;;;26.17;7.03;;;2.80;79.50;;;;;;5017659;28;20033;-61
2022/02/26 05:24:26;;;;;;;15.90;6.13;;;2.80;79.40;;;;;;5028727;28;20436;-61
2022/02/26 05:26:51;;;;;;;26.23;7.57;;;2.80;79.40;;;;;;5027558;28;20669;-60
2022/02/26 05:29:17;;;;;;;30.35;6.50;;;2.80;79.40;;;;;;5018845;28;20108;-61
2022/02/26 05:31:43;;;;;;;28.95;6.43;;;2.80;79.40;;;;;;5027899;28;20037;-61
2022/02/26 05:34:18;;;;;;;23.50;7.03;;;2.80;79.40;;;;;;5028861;28;20511;-60
2022/02/26 05:36:43;;;;;;;21.13;6.82;;;2.80;79.50;;;;;;5029790;28;20094;-61
2022/02/26 05:39:09;;;;;;;19.95;6.88;;;2.80;79.40;;;;;;5030030;28;20108;-61
2022/02/26 05:41:38;;;;;;;28.30;6.53;;;2.70;79.40;;;;;;5030132;28;20089;-61
2022/02/26 05:44:04;;;;;;;24.00;8.32;;;2.70;79.40;;;;;;5029313;28;20028;-65
2022/02/26 05:46:39;;;;;;;27.02;7.50;;;2.70;79.50;;;;;;5029638;28;20022;-65
2022/02/26 05:49:05;;;;;;;29.17;8.07;;;2.70;79.50;;;;;;5028926;28;20026;-65
2022/02/26 05:51:31;;;;;;;28.15;9.60;;;2.70;79.70;;;;;;5027686;28;20168;-61
2022/02/26 05:53:57;;;;;;;35.08;8.85;;;2.70;79.80;;;;;;5028259;28;20121;-61
2022/02/26 05:56:22;;;;;;;32.88;9.70;;;2.70;79.70;;;;;;5028975;28;20156;-61
2022/02/26 05:58:48;;;;;;;37.85;8.93;;;2.60;79.60;;;;;;5026957;28;20388;-61
2022/02/26 06:01:23;;;;;;;28.10;8.23;;;2.70;79.70;;;;;;5009652;28;20033;-65
2022/02/26 06:03:48;;;;;;;35.70;8.57;;;2.60;79.60;;;;;;5023615;28;20369;-65
2022/02/26 06:06:14;;;;;;;33.28;9.75;;;2.60;79.50;;;;;;5028161;28;20132;-65
2022/02/26 06:08:40;;;;;;;38.15;9.82;;;2.60;79.50;;;;;;5029142;28;20057;-65
2022/02/26 06:11:06;;;;;;;32.28;8.60;;;2.50;79.40;;;;;;5027832;28;20037;-61
2022/02/26 06:13:31;;;;;;;26.30;7.15;;;2.50;79.50;;;;;;5028040;28;20047;-62
2022/02/26 06:15:57;;;;;;;20.45;6.90;;;2.50;79.50;;;;;;5026983;28;20366;-61
2022/02/26 06:18:24;;;;;;;19.17;6.90;;;2.50;79.50;;;;;;5011548;28;20041;-60
2022/02/26 06:20:50;;;;;;;19.80;7.22;;;2.40;79.30;;;;;;5049844;28;20068;-66
2022/02/26 06:23:18;;;;;;;17.92;7.35;;;2.40;79.10;;;;;;5039500;28;20064;-66
2022/02/26 06:25:44;;;;;;;19.08;6.95;;;2.40;79.00;;;;;;5062974;28;20084;-61
2022/02/26 06:28:13;;;;;;;18.08;6.45;;;2.40;79.00;;;;;;5029667;28;20025;-61
2022/02/26 06:30:40;;;;;;;13.15;6.38;;;2.30;78.90;;;;;;5030661;28;20028;-60
2022/02/26 06:33:06;;;;;;;18.05;6.95;;;2.30;78.90;;;;;;5026253;28;20036;-61
2022/02/26 06:35:32;;;;;;;18.75;8.23;;;2.30;78.90;;;;;;5036339;28;20434;-61
2022/02/26 06:37:58;;;;;;;12.73;6.75;;;2.30;79.00;;;;;;5040185;28;20049;-61
2022/02/26 06:40:24;;;;;;;18.58;7.10;;;2.30;78.90;;;;;;5032867;28;20022;-61
2022/02/26 06:42:49;;;;;;;14.43;6.63;;;2.20;78.80;;;;;;5031590;28;20692;-65
2022/02/26 06:45:15;;;;;;;16.45;6.40;;;2.30;78.80;;;;;;5033771;28;20087;-65
2022/02/26 06:47:41;;;;;;;10.90;6.65;;;2.30;78.70;;;;;;5032706;28;20045;-66
2022/02/26 06:50:07;;;;;;;11.93;6.90;;;2.30;78.80;;;;;;5027087;28;20026;-65
2022/02/26 06:52:32;;;;;;;17.70;7.30;;;2.20;78.80;;;;;;5031223;28;20052;-60
2022/02/26 06:54:58;;;;;;;19.38;7.22;;;2.20;78.80;;;;;;5034061;28;20045;-65
2022/02/26 06:57:24;;;;;;;17.33;7.18;;;2.20;78.90;;;;;;5034184;28;20034;-60
2022/02/26 06:59:49;;;;;;;14.55;6.82;;;2.20;78.90;;;;;;5032843;28;20036;-60
2022/02/26 07:02:15;;;;;;;16.92;8.00;;;2.20;78.90;;;;;;5031907;28;20123;-60
2022/02/26 07:04:44;;;;;;;19.58;8.15;;;2.20;79.00;;;;;;5031862;28;20057;-60
2022/02/26 07:07:10;;;;;;;17.88;7.03;;;2.20;79.20;;;;;;5029236;28;20156;-60
2022/02/26 07:09:36;;;;;;;20.50;7.45;;;2.20;79.30;;;;;;5032910;28;20484;-60
2022/02/26 07:12:01;;;;;;;14.48;7.20;;;2.20;79.40;;;;;;5031896;28;20037;-65
2022/02/26 07:14:27;;;;;;;16.60;7.07;;;2.20;79.40;;;;;;5032373;28;20037;-65
2022/02/26 07:16:53;;;;;;;16.63;8.00;;;2.20;79.50;;;;;;5031608;28;20112;-65
2022/02/26 07:19:18;;;;;;;12.40;6.90;;;2.30;79.70;;;;;;5030787;28;20037;-64
2022/02/26 07:21:44;;;;;;;16.63;7.50;;;2.30;79.70;;;;;;5032609;28;20033;-65
2022/02/26 07:24:10;;;;;;;16.73;7.32;;;2.30;79.80;;;;;;5028891;28;20038;-65
2022/02/26 07:26:42;;;;;;;16.95;7.05;;;2.30;79.90;;;;;;5031379;28;20033;-65
2022/02/26 07:29:08;;;;;;;15.75;7.15;;;2.30;79.90;;;;;;5029535;28;20033;-65
2022/02/26 07:31:34;;;;;;;17.55;7.60;;;2.40;80.00;;;;;;5029578;28;20037;-64
2022/02/26 07:34:00;;;;;;;20.40;7.32;;;2.40;80.00;;;;;;5031028;28;20033;-61
2022/02/26 07:36:26;;;;;;;16.92;7.03;;;2.40;80.00;;;;;;5032649;28;20065;-65
2022/02/26 07:38:51;;;;;;;22.98;7.93;;;2.40;80.00;;;;;;5031114;28;20244;-60
2022/02/26 07:41:17;;;;;;;17.13;7.85;;;2.50;80.60;;;;;;5026651;28;20135;-60
2022/02/26 07:43:43;;;;;;;15.80;7.25;;;2.50;80.80;;;;;;5023570;28;20471;-60
2022/02/26 07:46:08;;;;;;;19.33;6.97;;;2.50;80.90;;;;;;5031268;28;20117;-60
2022/02/26 07:48:35;;;;;;;18.45;7.15;;;2.60;80.90;;;;;;5030449;28;20052;-60
2022/02/26 07:51:01;;;;;;;23.95;9.20;;;2.60;80.90;;;;;;5031862;28;20784;-60
2022/02/26 07:53:26;;;;;;;13.93;7.45;;;2.70;81.40;;;;;;5030868;28;20025;-61
2022/02/26 07:55:52;;;;;;;15.82;8.65;;;2.70;81.60;;;;;;5031548;28;20061;-61
2022/02/26 07:58:20;;;;;;;16.60;8.35;;;2.80;81.70;;;;;;5030019;28;20087;-60
2022/02/26 08:00:55;;;;;;;13.75;6.90;;;2.80;81.70;;;;;;5025786;28;20038;-65
2022/02/26 08:03:20;;;;;;;20.27;8.27;;;2.90;81.70;;;;;;5031319;28;20029;-60
2022/02/26 08:05:46;;;;;;;12.95;7.38;;;2.90;81.60;;;;;;5031087;28;20100;-64
2022/02/26 08:08:12;;;;;;;14.68;7.00;;;3.00;81.80;;;;;;5030111;28;20025;-64
2022/02/26 08:10:38;;;;;;;15.20;7.15;;;3.10;82.00;;;;;;5030736;28;20496;-64
2022/02/26 08:13:04;;;;;;;16.25;7.60;;;3.20;82.10;;;;;;5030346;28;20038;-64
2022/02/26 08:15:30;;;;;;;24.30;9.48;;;3.20;82.10;;;;;;5023984;28;20021;-64
2022/02/26 08:17:56;;;;;;;12.88;7.25;;;3.30;82.30;;;;;;5020292;28;20273;-64
2022/02/26 08:20:26;;;;;;;13.82;7.40;;;3.40;82.40;;;;;;5024636;28;20026;-65
2022/02/26 08:22:53;;;;;;;18.48;8.60;;;3.40;82.50;;;;;;5026741;28;20033;-64
2022/02/26 08:25:20;;;;;;;21.83;8.15;;;3.50;83.20;;;;;;5030388;28;20113;-60
2022/02/26 08:27:46;;;;;;;16.17;8.02;;;3.50;83.50;;;;;;5062069;28;20068;-61
2022/02/26 08:30:14;;;;;;;18.58;7.25;;;3.60;83.50;;;;;;5012114;28;20140;-60
2022/02/26 08:32:41;;;;;;;13.07;6.85;;;3.70;83.70;;;;;;5017829;28;20026;-60
2022/02/26 08:35:11;;;;;;;21.33;8.63;;;3.70;83.80;;;;;;5031837;28;20034;-64
2022/02/26 08:37:38;;;;;;;15.00;7.93;;;3.80;84.40;;;;;;5017496;28;20069;-65
2022/02/26 08:40:06;;;;;;;18.88;8.35;;;3.80;84.50;;;;;;5033203;28;20091;-60
2022/02/26 08:42:32;;;;;;;18.88;8.63;;;3.90;84.90;;;;;;5028424;28;20078;-61
2022/02/26 08:44:57;;;;;;;13.88;6.15;;;4.00;85.00;;;;;;5029751;28;20037;-60
2022/02/26 08:47:23;;;;;;;14.88;5.57;;;4.10;85.10;;;;;;5029114;28;20025;-60
2022/02/26 08:49:49;;;;;;;19.33;5.80;;;4.20;85.10;;;;;;5021332;28;20112;-60
2022/02/26 08:52:15;;;;;;;10.68;5.50;;;4.30;85.20;;;;;;5029684;28;20480;-60
2022/02/26 08:54:41;;;;;;;16.30;7.57;;;4.40;85.20;;;;;;5028629;28;20037;-61
2022/02/26 08:57:07;;;;;;;15.88;7.13;;;4.50;85.50;;;;;;5029762;28;20392;-60
2022/02/26 08:59:33;;;;;;;19.42;7.15;;;4.50;85.80;;;;;;5030300;28;20384;-60
2022/02/26 09:01:59;;;;;;;21.67;6.78;;;4.60;86.00;;;;;;5028886;28;20048;-62
2022/02/26 09:04:25;;;;;;;18.42;9.60;;;4.70;86.10;;;;;;5023103;28;20026;-61
2022/02/26 09:06:50;;;;;;;17.92;9.63;;;4.80;86.20;;;;;;5015205;28;20086;-60
2022/02/26 09:09:16;;;;;;;16.80;10.13;;;4.80;86.30;;;;;;5013888;28;20030;-64
2022/02/26 09:11:42;;;;;;;20.02;11.30;;;4.90;86.50;;;;;;5025018;28;20021;-60
2022/02/26 09:14:09;;;;;;;13.68;9.75;;;5.00;86.80;;;;;;5032653;28;20029;-61
2022/02/26 09:16:35;;;;;;;15.18;10.05;;;5.10;86.80;;;;;;5020864;28;20559;-60
2022/02/26 09:19:01;;;;;;;13.98;8.93;;;5.10;86.70;;;;;;5021684;28;20025;-60
2022/02/26 09:21:27;;;;;;;15.23;9.82;;;5.30;86.60;;;;;;5034624;28;20057;-60
2022/02/26 09:23:53;;;;;;;16.05;10.05;;;5.30;86.50;;;;;;5010238;28;20088;-60
2022/02/26 09:26:19;;;;;;;20.30;11.93;;;5.50;86.70;;;;;;5026692;28;20388;-60
2022/02/26 09:28:45;;;;;;;16.45;11.40;;;5.60;87.00;;;;;;5020353;28;20060;-61
2022/02/26 09:31:12;;;;;;;16.38;10.38;;;5.70;87.00;;;;;;5021650;28;20551;-60
2022/02/26 09:33:39;;;;;;;17.50;9.95;;;5.80;87.00;;;;;;5025952;28;20029;-60
2022/02/26 09:36:07;;;;;;;17.23;10.80;;;5.90;86.80;;;;;;5024139;28;20088;-63
2022/02/26 09:38:34;;;;;;;13.35;9.85;;;6.00;86.30;;;;;;5035767;28;20360;-63
2022/02/26 09:41:02;;;;;;;14.45;10.05;;;6.10;86.00;;;;;;5025604;28;20116;-63
2022/02/26 09:43:29;;;;;;;15.55;9.68;;;6.30;85.80;;;;;;5026102;28;20037;-63
2022/02/26 09:45:56;;;;;;;21.20;9.38;;;6.40;85.70;;;;;;5021092;28;20526;-59
2022/02/26 09:48:22;;;;;;;16.35;9.07;;;6.40;85.30;;;;;;5026162;28;20031;-60
2022/02/26 09:50:51;;;;;;;14.35;9.35;;;6.50;85.20;;;;;;5024070;28;20037;-60
2022/02/26 09:53:19;;;;;;;15.93;8.85;;;6.60;85.30;;;;;;5026239;28;20384;-60
2022/02/26 09:55:45;;;;;;;16.67;8.80;;;6.80;85.30;;;;;;5017834;28;20539;-64
2022/02/26 09:58:12;;;;;;;13.40;6.93;;;6.90;85.10;;;;;;5021607;28;20049;-64
2022/02/26 10:00:38;;;;;;;13.95;6.32;;;7.00;84.60;;;;;;5019722;28;20029;-61
2022/02/26 10:03:04;;;;;;;13.23;6.03;;;7.10;84.10;;;;;;5039452;28;20048;-61
2022/02/26 10:05:30;;;;;;;16.20;5.70;;;7.10;83.70;;;;;;5039098;28;20032;-60
2022/02/26 10:07:56;;;;;;;12.98;6.18;;;7.20;83.50;;;;;;5015186;28;20022;-61
2022/02/26 10:10:28;;;;;;;13.10;5.13;;;7.30;83.40;;;;;;5036247;28;20025;-61
2022/02/26 10:12:59;;;;;;;14.47;4.70;;;7.40;82.90;;;;;;5028379;28;20025;-65
2022/02/26 10:15:30;;;;;;;10.60;4.20;;;7.50;82.90;;;;;;5019554;28;20030;-65
2022/02/26 10:18:12;;;;;;;18.25;5.20;;;7.70;82.70;;;;;;5029509;28;20033;-61
2022/02/26 10:20:59;;;;;;;15.63;5.30;;;7.70;81.40;;;;;;5040409;28;20028;-61
2022/02/26 10:23:25;;;;;;;11.82;4.72;;;7.70;81.00;;;;;;5027540;28;20396;-60
2022/02/26 10:25:51;;;;;;;14.30;4.15;;;7.80;81.20;;;;;;5013756;28;20034;-60
2022/02/26 10:28:17;;;;;;;15.20;4.72;;;7.90;80.70;;;;;;5037262;28;20469;-60
2022/02/26 10:30:49;;;;;;;11.18;3.72;;;8.00;80.80;;;;;;5016950;28;20030;-60
2022/02/26 10:33:17;;;;;;;16.40;2.70;;;8.10;80.60;;;;;;5034847;28;20033;-60
2022/02/26 10:35:48;;;;;;;13.32;2.33;;;8.20;79.50;;;;;;5030320;28;20030;-61
2022/02/26 10:38:21;;;;;;;12.32;2.05;;;8.10;78.20;;;;;;5033930;28;20702;-61
2022/02/26 10:41:07;;;;;;;14.25;2.97;;;8.10;77.30;;;;;;5039711;28;20476;-62
2022/02/26 10:43:55;;;;;;;11.43;2.70;;;8.00;77.80;;;;;;5008202;28;20096;-65
2022/02/26 10:46:30;;;;;;;14.65;2.97;;;8.20;77.60;;;;;;5009287;28;20079;-61
2022/02/26 10:49:09;;;;;;;13.82;2.70;;;8.20;76.60;;;;;;5019862;28;20396;-62
2022/02/26 10:51:37;;;;;;;12.23;3.53;;;8.40;77.20;;;;;;5026563;28;20453;-61
2022/02/26 10:54:06;;;;;;;14.35;3.25;;;8.60;77.20;;;;;;5025005;28;20396;-61
2022/02/26 10:56:43;;;;;;;15.48;2.47;;;8.80;76.20;;;;;;5028345;28;20113;-61
2022/02/26 10:59:12;;;;;;;6.95;2.17;;;8.90;74.30;;;;;;5028859;28;20033;-61
2022/02/26 11:01:39;;;;;;;13.05;2.58;;;9.00;74.30;;;;;;5028384;28;20633;-61
2022/02/26 11:04:05;;;;;;;9.95;2.83;;;9.40;90.80;;;;;;5029121;28;20053;-61
2022/02/26 11:06:32;;;;;;;10.80;2.65;;;9.30;74.00;;;;;;5026786;28;20073;-61
2022/02/26 11:08:58;;;;;;;10.80;2.13;;;9.40;74.20;;;;;;5011790;28;20030;-61
2022/02/26 11:13:51;;;;;;;8.48;2.70;;;9.70;72.90;;;;;;5060744;28;20365;-60
2022/02/26 11:16:19;;;;;;;8.13;2.35;;;9.70;72.80;;;;;;5050725;28;20029;-60
2022/02/26 11:18:48;;;;;;;11.35;3.10;;;9.80;71.40;;;;;;5045013;28;20029;-60
2022/02/26 11:21:16;;;;;;;7.70;2.30;;;9.80;71.70;;;;;;5045844;28;20079;-60
2022/02/26 11:23:41;;;;;;;9.35;3.08;;;9.70;71.90;;;;;;5044842;28;20079;-61
2022/02/26 11:26:09;;;;;;;12.43;3.70;;;9.70;71.90;;;;;;5045686;28;20026;-60
2022/02/26 11:28:38;;;;;;;17.58;3.47;;;9.80;71.20;;;;;;5077392;28;20079;-64
2022/02/26 11:31:12;;;;;;;12.88;2.95;;;9.90;70.10;;;;;;5045247;28;20075;-65
2022/02/26 11:33:44;;;;;;;13.85;2.92;;;9.70;69.00;;;;;;5044810;28;20395;-65
2022/02/26 11:36:10;;;;;;;11.52;2.30;;;9.50;68.30;;;;;;5038318;28;20387;-65
2022/02/26 11:38:39;;;;;;;11.27;2.28;;;9.40;68.90;;;;;;5045656;28;20033;-65
2022/02/26 11:41:28;;;;;;;8.68;2.28;;;9.30;68.70;;;;;;5045596;28;20060;-65
2022/02/26 11:43:59;;;;;;;8.00;1.80;;;9.50;68.70;;;;;;5045813;28;20113;-65
2022/02/26 11:46:34;;;;;;;11.68;2.58;;;9.70;68.40;;;;;;5053723;28;20021;-66
2022/02/26 11:49:18;;;;;;;9.15;2.13;;;9.90;67.50;;;;;;5065929;28;20017;-65
2022/02/26 11:51:48;;;;;;;10.70;2.50;;;9.90;66.70;;;;;;5065843;28;20043;-65
2022/02/26 11:54:16;;;;;;;7.43;1.95;;;10.00;66.70;;;;;;5064909;28;20029;-65
2022/02/26 11:56:59;;;;;;;9.65;2.40;;;10.10;66.90;;;;;;5056050;28;21095;-65
2022/02/26 11:59:42;;;;;;;6.60;1.63;;;10.40;66.90;;;;;;5045701;28;20017;-64
2022/02/26 12:02:13;;;;;;;17.38;3.88;;;10.70;66.10;;;;;;5045314;28;20037;-60
2022/02/26 12:04:59;;;;;;;6.82;2.60;;;10.90;61.30;;;;;;5045350;28;20163;-61
2022/02/26 12:07:30;;;;;;;8.68;2.10;;;10.90;61.90;;;;;;5045358;28;20036;-61
2022/02/26 12:10:04;;;;;;;7.00;2.00;;;11.00;62.80;;;;;;5045667;28;20067;-61
2022/02/26 12:12:38;;;;;;;7.80;2.30;;;11.10;62.20;;;;;;5044198;28;20140;-61
2022/02/26 12:15:27;;;;;;;10.20;2.85;;;11.30;61.40;;;;;;5045263;28;20053;-61
2022/02/26 12:18:12;;;;;;;10.02;2.72;;;11.40;58.70;;;;;;5045427;28;20033;-62
2022/02/26 12:20:39;;;;;;;9.00;2.15;;;11.40;57.80;;;;;;5045541;28;20028;-60
2022/02/26 12:23:14;;;;;;;10.02;2.60;;;11.70;58.70;;;;;;5043271;28;20040;-61
2022/02/26 12:25:42;;;;;;;11.40;2.90;;;11.70;58.30;;;;;;5031585;28;20120;-60
2022/02/26 12:28:10;;;;;;;14.75;4.10;;;11.70;56.90;;;;;;5031559;28;20522;-62
2022/02/26 12:30:59;;;;;;;10.63;2.53;;;11.60;57.20;;;;;;5030571;28;20055;-60
2022/02/26 12:33:25;;;;;;;9.05;2.05;;;11.50;57.40;;;;;;5031251;28;20091;-61
2022/02/26 12:36:07;;;;;;;12.73;2.95;;;11.60;56.50;;;;;;5032060;28;20124;-61
2022/02/26 12:38:32;;;;;;;10.10;2.38;;;11.70;55.90;;;;;;5031859;28;20021;-61
2022/02/26 12:40:59;;;;;;;8.32;2.67;;;11.70;54.40;;;;;;5025493;28;20038;-61
2022/02/26 12:43:29;;;;;;;10.85;2.63;;;11.80;54.90;;;;;;5030798;28;20096;-60
2022/02/26 12:45:56;;;;;;;11.63;3.20;;;11.80;54.80;;;;;;5031697;28;20036;-64
2022/02/26 12:48:23;;;;;;;7.47;2.08;;;12.00;54.80;;;;;;5031373;28;20028;-64
2022/02/26 12:50:50;;;;;;;11.60;2.80;;;12.10;55.20;;;;;;5043492;28;20029;-64
2022/02/26 12:53:20;;;;;;;11.38;2.80;;;12.30;53.30;;;;;;5034388;28;20055;-64